Prosperity, West Virginia
Current Conditions -  °F | °C
As of 5:51 PM on Monday 22 Dec 2014 (Local Time) from KBKW Reporting Station
Overcast Overcast  
Wind Chill: 28°   Ceiling: 800
Heat Index: 37°   Visibility: 10mi
Dew Point: 33°   Wind: 14mph
Humidity: 86%   Direction: 130°SE
Pressure: 29.93"   Gusts: 21mph
Location:  37.84°N, 81.2°W
Report Text: KBKW 222251Z AUTO 13012G18KT 10SM OVC008 03/01 A2993 RMK AO2 SLP154 T00280006
Loading
Personal Weather Stations






























Interactive Weather Map New forecast layout! Learn more

10-Day Weather Forecast

Advertisements
Track Severe Weather on mobile